createdAt,value
2019-04-25T00:02:22.339Z,100357.67
2019-04-25T00:04:53.485Z,100364.73
2019-04-25T00:07:24.314Z,100364.99
2019-04-25T00:09:55.566Z,100363.14
2019-04-25T00:12:26.429Z,100364.64
2019-04-25T00:15:01.267Z,100364.39
2019-04-25T00:17:33.241Z,100371.95
2019-04-25T00:20:04.855Z,100371.09
2019-04-25T00:22:37.389Z,100370.29
2019-04-25T00:25:15.965Z,100366.36
2019-04-25T00:27:43.568Z,100365.91
2019-04-25T00:30:14.820Z,100375.20
2019-04-25T00:32:45.525Z,100373.99
2019-04-25T00:35:16.472Z,100378.20
2019-04-25T00:37:47.824Z,100373.59
2019-04-25T00:40:18.803Z,100379.54
2019-04-25T00:42:50.675Z,100384.28
2019-04-25T00:45:22.292Z,100385.44
2019-04-25T00:47:53.462Z,100389.39
2019-04-25T00:50:24.431Z,100392.05
2019-04-25T00:52:55.084Z,100392.75
2019-04-25T00:55:28.804Z,100395.77
2019-04-25T00:58:01.380Z,100396.25
2019-04-25T01:00:35.161Z,100398.67
2019-04-25T01:03:11.238Z,100390.13
2019-04-25T01:05:44.300Z,100396.31
2019-04-25T01:08:14.881Z,100391.96
2019-04-25T01:10:46.221Z,100395.89
2019-04-25T01:13:17.451Z,100395.92
2019-04-25T01:15:48.502Z,100391.20
2019-04-25T01:18:19.487Z,100392.06
2019-04-25T01:20:51.165Z,100394.64
2019-04-25T01:23:23.656Z,100394.13
2019-04-25T01:25:54.687Z,100396.08
2019-04-25T01:28:25.713Z,100395.63
2019-04-25T01:30:56.452Z,100391.44
2019-04-25T01:33:28.124Z,100394.80
2019-04-25T01:36:03.624Z,100396.51
2019-04-25T01:38:53.627Z,100397.16
2019-04-25T01:41:25.596Z,100394.15
2019-04-25T01:44:00.645Z,100394.89
2019-04-25T01:46:31.585Z,100392.54
2019-04-25T01:49:04.234Z,100384.72
2019-04-25T01:51:35.088Z,100385.40
2019-04-25T01:54:05.979Z,100393.37
2019-04-25T01:56:36.550Z,100395.43
2019-04-25T01:59:07.294Z,100391.82
2019-04-25T02:01:39.721Z,100392.52
2019-04-25T02:04:11.096Z,100395.00
2019-04-25T02:06:43.057Z,100396.80
2019-04-25T02:09:14.722Z,100391.55
2019-04-25T02:11:54.730Z,100389.14
2019-04-25T02:14:26.538Z,100386.11
2019-04-25T02:16:59.041Z,100382.77
2019-04-25T02:19:29.872Z,100383.26
2019-04-25T02:22:02.470Z,100379.33
2019-04-25T02:24:34.013Z,100372.44
2019-04-25T02:27:04.862Z,100370.70
2019-04-25T02:29:35.583Z,100371.86
2019-04-25T02:32:09.052Z,100376.23
2019-04-25T02:34:39.113Z,100371.36
2019-04-25T02:37:09.889Z,100372.53
2019-04-25T02:39:40.552Z,100375.00
2019-04-25T02:42:11.375Z,100376.11
2019-04-25T02:44:44.510Z,100375.80
2019-04-25T02:47:34.465Z,100379.73
2019-04-25T02:50:15.129Z,100380.50
2019-04-25T02:52:47.848Z,100378.70
2019-04-25T02:55:30.999Z,100391.35
2019-04-25T02:57:50.893Z,100400.11
2019-04-25T03:00:45.341Z,100413.47
2019-04-25T03:03:01.257Z,100420.88
2019-04-25T03:05:32.034Z,100434.58
2019-04-25T03:08:07.953Z,100442.36
2019-04-25T03:13:15.312Z,100444.73
2019-04-25T03:15:46.977Z,100433.95
2019-04-25T03:18:19.285Z,100427.53
2019-04-25T03:20:54.931Z,100419.97
2019-04-25T03:23:30.341Z,100421.61
2019-04-25T03:26:04.711Z,100420.16
2019-04-25T03:28:35.746Z,100424.17
2019-04-25T03:31:12.763Z,100426.87
2019-04-25T03:33:38.908Z,100428.12
2019-04-25T03:36:09.650Z,100435.09
2019-04-25T03:38:40.628Z,100432.33
2019-04-25T03:41:11.448Z,100436.45
2019-04-25T03:43:44.133Z,100436.25
2019-04-25T03:46:14.832Z,100427.14
2019-04-25T03:48:45.572Z,100429.16
2019-04-25T03:51:16.363Z,100427.63
2019-04-25T03:53:46.992Z,100426.53
2019-04-25T03:56:17.701Z,100420.98
2019-04-25T03:58:50.734Z,100425.96
2019-04-25T04:01:24.520Z,100435.41
2019-04-25T04:03:55.928Z,100440.68
2019-04-25T04:06:26.829Z,100434.31
2019-04-25T04:08:57.542Z,100440.31
2019-04-25T04:11:28.427Z,100423.97
2019-04-25T04:13:59.006Z,100438.91
2019-04-25T04:16:44.304Z,100454.02
2019-04-25T04:19:24.042Z,100469.90
2019-04-25T04:21:56.529Z,100452.97
2019-04-25T04:24:29.831Z,100446.77
2019-04-25T04:27:09.116Z,100454.09
2019-04-25T04:29:39.550Z,100462.02
2019-04-25T04:32:10.568Z,100459.04
2019-04-25T04:34:41.388Z,100452.14
2019-04-25T04:37:13.944Z,100448.28
2019-04-25T04:39:44.537Z,100455.88
2019-04-25T04:42:16.073Z,100453.16
2019-04-25T04:44:46.877Z,100456.41
2019-04-25T04:47:17.462Z,100457.69
2019-04-25T04:49:48.211Z,100464.58
2019-04-25T04:52:19.097Z,100464.74
2019-04-25T04:54:57.686Z,100460.13
2019-04-25T04:57:32.267Z,100460.42
2019-04-25T04:59:54.975Z,100457.90
2019-04-25T05:02:33.710Z,100468.15
2019-04-25T05:05:06.806Z,100464.33
2019-04-25T05:07:53.860Z,100460.82
2019-04-25T05:10:24.990Z,100472.47
2019-04-25T05:12:55.936Z,100462.05
2019-04-25T05:15:26.845Z,100466.14
2019-04-25T05:17:58.302Z,100468.09
2019-04-25T05:20:28.944Z,100471.20
2019-04-25T05:22:59.546Z,100478.20
2019-04-25T05:25:30.772Z,100478.56
2019-04-25T05:28:05.116Z,100477.11
2019-04-25T05:30:40.745Z,100475.42
2019-04-25T05:33:11.608Z,100474.08
2019-04-25T05:35:43.773Z,100480.37
2019-04-25T05:38:16.338Z,100483.00
2019-04-25T05:40:50.430Z,100494.95
2019-04-25T05:43:21.476Z,100509.78
2019-04-25T05:45:52.040Z,100519.00
2019-04-25T05:48:25.068Z,100520.05
2019-04-25T05:50:55.243Z,100521.42
2019-04-25T05:53:26.356Z,100523.55
2019-04-25T05:55:57.733Z,100528.58
2019-04-25T05:58:28.605Z,100522.98
2019-04-25T06:01:00.522Z,100532.40
2019-04-25T06:03:31.688Z,100539.69
2019-04-25T06:06:03.483Z,100537.89
2019-04-25T06:08:37.820Z,100531.91
2019-04-25T06:11:18.084Z,100538.92
2019-04-25T06:13:53.784Z,100533.80
2019-04-25T06:16:28.281Z,100535.89
2019-04-25T06:19:14.203Z,100535.16
2019-04-25T06:21:43.511Z,100531.23
2019-04-25T06:24:20.472Z,100528.61
2019-04-25T06:26:53.911Z,100527.73
2019-04-25T06:29:24.856Z,100527.97
2019-04-25T06:32:05.714Z,100528.31
2019-04-25T06:34:31.693Z,100528.78
2019-04-25T06:37:04.255Z,100533.31
2019-04-25T06:39:34.141Z,100550.52
2019-04-25T06:42:06.064Z,100532.59
2019-04-25T06:44:43.224Z,100547.09
2019-04-25T06:47:29.572Z,100550.13
2019-04-25T06:50:00.314Z,100551.81
2019-04-25T06:52:32.053Z,100547.60
2019-04-25T06:55:16.927Z,100549.25
2019-04-25T06:57:54.416Z,100556.56
2019-04-25T07:00:29.488Z,100563.60
2019-04-25T07:03:01.234Z,100552.69
2019-04-25T07:05:40.287Z,100565.48
2019-04-25T07:08:07.679Z,100574.33
2019-04-25T07:10:39.289Z,100574.25
2019-04-25T07:13:10.230Z,100563.26
2019-04-25T07:15:41.399Z,100565.49
2019-04-25T07:18:14.097Z,100575.33
2019-04-25T07:20:45.445Z,100571.31
2019-04-25T07:23:17.082Z,100574.38
2019-04-25T07:25:50.549Z,100564.84
2019-04-25T07:28:36.087Z,100570.95
2019-04-25T07:31:13.324Z,100580.71
2019-04-25T07:33:49.716Z,100583.42
2019-04-25T07:36:23.248Z,100584.80
2019-04-25T07:39:05.775Z,100581.56
2019-04-25T07:41:36.749Z,100585.27
2019-04-25T07:44:07.384Z,100579.69
2019-04-25T07:46:39.957Z,100575.73
2019-04-25T07:49:13.365Z,100578.19
2019-04-25T07:51:46.973Z,100581.56
2019-04-25T07:54:18.008Z,100583.55
2019-04-25T07:56:51.642Z,100588.64
2019-04-25T07:59:25.533Z,100590.44
2019-04-25T08:01:59.653Z,100592.22
2019-04-25T08:04:31.774Z,100585.67
2019-04-25T08:07:04.949Z,100582.80
2019-04-25T08:09:37.978Z,100586.63
2019-04-25T08:12:09.323Z,100587.05
2019-04-25T08:14:41.742Z,100584.30
2019-04-25T08:17:16.295Z,100597.53
2019-04-25T08:20:01.939Z,100600.09
2019-04-25T08:22:42.912Z,100597.16
2019-04-25T08:25:11.093Z,100595.23
2019-04-25T08:27:41.862Z,100597.92
2019-04-25T08:30:16.019Z,100598.89
2019-04-25T08:32:49.472Z,100605.36
2019-04-25T08:35:21.479Z,100608.20
2019-04-25T08:37:54.275Z,100610.06
2019-04-25T08:40:32.471Z,100607.02
2019-04-25T08:43:06.548Z,100599.48
2019-04-25T08:45:39.961Z,100600.25
2019-04-25T08:48:13.621Z,100604.37
2019-04-25T08:51:03.674Z,100599.02
2019-04-25T08:53:38.697Z,100586.91
2019-04-25T08:56:15.313Z,100592.89
2019-04-25T08:59:03.332Z,100602.59
2019-04-25T09:01:34.901Z,100606.05
2019-04-25T09:04:10.733Z,100614.62
2019-04-25T09:06:44.342Z,100617.45
2019-04-25T09:09:16.672Z,100622.13
2019-04-25T09:11:49.192Z,100606.94
2019-04-25T09:14:22.053Z,100612.62
2019-04-25T09:16:55.124Z,100618.62
2019-04-25T09:19:28.063Z,100620.78
2019-04-25T09:22:03.218Z,100617.80
2019-04-25T09:24:37.729Z,100614.67
2019-04-25T09:27:09.800Z,100617.45
2019-04-25T09:29:41.125Z,100605.53
2019-04-25T09:32:16.230Z,100596.84
2019-04-25T09:34:52.616Z,100602.06
2019-04-25T09:37:29.656Z,100606.02
2019-04-25T09:40:10.264Z,100599.77
2019-04-25T09:42:44.739Z,100603.36
2019-04-25T09:45:30.901Z,100603.42
2019-04-25T09:48:10.088Z,100605.34
2019-04-25T09:51:01.102Z,100608.06
2019-04-25T09:53:34.291Z,100610.69
2019-04-25T09:56:10.155Z,100608.55
2019-04-25T09:58:53.841Z,100608.39
2019-04-25T10:01:28.061Z,100600.02
2019-04-25T10:04:03.073Z,100613.48
2019-04-25T10:06:38.912Z,100610.26
2019-04-25T10:09:15.618Z,100606.69
2019-04-25T10:11:46.714Z,100609.44
2019-04-25T10:14:37.693Z,100610.05
2019-04-25T10:17:10.470Z,100613.20
2019-04-25T10:19:45.597Z,100612.59
2019-04-25T10:22:20.979Z,100610.53
2019-04-25T10:25:00.414Z,100607.66
2019-04-25T10:27:26.233Z,100605.72
2019-04-25T10:29:57.469Z,100606.00
2019-04-25T10:32:28.417Z,100600.52
2019-04-25T10:34:59.908Z,100601.53
2019-04-25T10:37:30.802Z,100599.98
2019-04-25T10:40:01.696Z,100597.23
2019-04-25T10:42:34.274Z,100602.63
2019-04-25T10:45:20.211Z,100599.65
2019-04-25T10:47:40.222Z,100596.45
2019-04-25T10:50:11.453Z,100601.58
2019-04-25T10:52:46.146Z,100595.12
2019-04-25T10:55:18.248Z,100596.21
2019-04-25T10:57:49.445Z,100600.66
2019-04-25T11:00:25.817Z,100595.38
2019-04-25T11:02:59.536Z,100595.25
2019-04-25T11:05:30.654Z,100593.88
2019-04-25T11:08:02.012Z,100596.14
2019-04-25T11:10:34.372Z,100592.97
2019-04-25T11:13:07.117Z,100593.79
2019-04-25T11:15:42.880Z,100589.05
2019-04-25T11:18:15.303Z,100595.95
2019-04-25T11:20:48.828Z,100587.02
2019-04-25T11:23:19.792Z,100588.50
2019-04-25T11:25:54.155Z,100590.94
2019-04-25T11:28:26.829Z,100583.63
2019-04-25T11:30:58.929Z,100582.36
2019-04-25T11:33:33.643Z,100584.16
2019-04-25T11:36:05.641Z,100581.23
2019-04-25T11:38:54.556Z,100583.61
2019-04-25T11:41:34.186Z,100585.30
2019-04-25T11:59:26.161Z,100586.63
2019-04-25T12:01:58.600Z,100585.72
2019-04-25T12:04:29.387Z,100586.30
2019-04-25T12:07:00.584Z,100587.28
2019-04-25T12:09:33.759Z,100582.41
2019-04-25T12:12:07.617Z,100590.44
2019-04-25T12:14:38.920Z,100590.85
2019-04-25T12:17:12.752Z,100583.90
2019-04-25T12:19:46.948Z,100588.63
2019-04-25T12:22:21.381Z,100587.75
2019-04-25T12:24:54.726Z,100585.72
2019-04-25T12:27:26.508Z,100592.41
2019-04-25T12:30:00.514Z,100592.98
2019-04-25T12:32:35.310Z,100589.61
2019-04-25T12:35:10.435Z,100585.42
2019-04-25T12:37:41.165Z,100582.86
2019-04-25T12:40:14.098Z,100589.16
2019-04-25T12:42:46.286Z,100584.64
2019-04-25T12:45:24.165Z,100580.84
2019-04-25T12:47:59.373Z,100585.75
2019-04-25T14:46:50.604Z,100513.77
2019-04-25T14:49:30.550Z,100518.27
2019-04-25T14:52:06.703Z,100516.91
2019-04-25T14:54:42.057Z,100508.16
2019-04-25T14:57:17.154Z,100511.84
2019-04-25T14:59:48.041Z,100508.84
2019-04-25T15:02:19.665Z,100512.34
2019-04-25T15:04:50.555Z,100508.70
2019-04-25T15:07:23.251Z,100509.02
2019-04-25T15:09:54.323Z,100514.47
2019-04-25T15:12:25.030Z,100513.02
2019-04-25T15:14:56.153Z,100512.00
2019-04-25T15:17:28.439Z,100510.96
2019-04-25T15:19:59.495Z,100505.03
2019-04-25T15:22:30.550Z,100501.84
2019-04-25T15:25:01.248Z,100500.23
2019-04-25T15:27:33.084Z,100501.19
2019-04-25T15:30:06.483Z,100501.59
2019-04-25T15:32:38.489Z,100500.84
2019-04-25T15:35:11.584Z,100498.32
2019-04-25T15:37:49.580Z,100504.34
2019-04-25T15:40:31.979Z,100511.45
2019-04-25T15:43:17.201Z,100505.59
2019-04-25T15:45:58.770Z,100504.44
2019-04-25T15:48:29.800Z,100508.42
2019-04-25T15:51:00.803Z,100504.62
2019-04-25T15:53:32.487Z,100508.44
2019-04-25T15:56:03.077Z,100506.28
2019-04-25T15:58:35.264Z,100505.78
2019-04-25T16:01:07.112Z,100502.64
2019-04-25T16:03:38.724Z,100505.41
2019-04-25T16:06:10.514Z,100500.38
2019-04-25T16:08:41.304Z,100503.01
2019-04-25T16:11:12.813Z,100499.61
2019-04-25T16:13:43.524Z,100506.27
2019-04-25T16:16:17.246Z,100509.77
2019-04-25T16:18:49.317Z,100498.55
2019-04-25T16:21:21.112Z,100503.39
2019-04-25T16:23:51.920Z,100500.52
2019-04-25T16:26:23.026Z,100503.02
2019-04-25T16:28:54.247Z,100505.11
2019-04-25T16:31:26.704Z,100503.51
2019-04-25T16:33:58.346Z,100511.30
2019-04-25T16:36:29.702Z,100507.34
2019-04-25T16:39:02.490Z,100501.87
2019-04-25T16:41:34.745Z,100504.17
2019-04-25T16:44:08.053Z,100507.84
2019-04-25T16:46:39.780Z,100508.27
2019-04-25T16:49:10.927Z,100505.35
2019-04-25T16:51:42.378Z,100505.09
2019-04-25T16:54:13.437Z,100504.77
2019-04-25T16:56:44.744Z,100509.19
2019-04-25T16:59:17.225Z,100504.21
2019-04-25T17:01:48.563Z,100502.73
2019-04-25T17:04:20.037Z,100511.20
2019-04-25T17:06:51.094Z,100508.47
2019-04-25T17:09:22.251Z,100506.55
2019-04-25T17:11:53.168Z,100512.57
2019-04-25T17:14:28.080Z,100511.00
2019-04-25T17:17:12.489Z,100515.86
2019-04-25T17:19:49.423Z,100516.20
2019-04-25T17:22:22.280Z,100519.14
2019-04-25T17:24:53.469Z,100519.60
2019-04-25T17:27:24.322Z,100512.16
2019-04-25T17:29:55.069Z,100519.70
2019-04-25T17:32:46.764Z,100521.51
2019-04-25T17:35:14.928Z,100516.62
2019-04-25T17:37:53.513Z,100516.91
2019-04-25T17:40:26.147Z,100522.03
2019-04-25T17:43:10.509Z,100520.05
2019-04-25T17:45:34.733Z,100519.70
2019-04-25T17:48:05.812Z,100522.67
2019-04-25T17:50:37.505Z,100520.94
2019-04-25T17:56:37.022Z,100532.73
2019-04-25T17:59:09.520Z,100535.11
2019-04-25T18:01:40.243Z,100539.20
2019-04-25T18:04:11.715Z,100542.29
2019-04-25T18:06:43.038Z,100542.80
2019-04-25T18:09:15.041Z,100545.39
2019-04-25T18:11:46.423Z,100544.28
2019-04-25T18:14:19.032Z,100554.03
2019-04-25T18:16:50.150Z,100551.06
2019-04-25T18:19:38.859Z,100549.64
2019-04-25T18:22:11.251Z,100553.64
2019-04-25T18:24:46.769Z,100549.78
2019-04-25T18:27:28.370Z,100549.61
2019-04-25T18:29:59.224Z,100549.81
2019-04-25T18:32:32.293Z,100559.22
2019-04-25T18:35:05.051Z,100558.77
2019-04-25T18:37:43.424Z,100568.84
2019-04-25T18:40:16.679Z,100561.02
2019-04-25T18:42:55.612Z,100564.52
2019-04-25T18:45:29.342Z,100567.34
2019-04-25T18:48:00.548Z,100572.10
2019-04-25T18:50:33.022Z,100567.27
2019-04-25T18:53:11.274Z,100559.55
2019-04-25T18:55:46.406Z,100566.84
2019-04-25T18:58:41.889Z,100564.90
2019-04-25T19:01:27.641Z,100559.10
2019-04-25T19:04:10.272Z,100564.05
2019-04-25T19:06:53.206Z,100565.46
2019-04-25T19:09:14.164Z,100566.95
2019-04-25T19:11:45.298Z,100564.34
2019-04-25T19:14:16.638Z,100568.73
2019-04-25T19:16:47.650Z,100570.66
2019-04-25T19:19:20.003Z,100561.73
2019-04-25T19:21:50.742Z,100562.84
2019-04-25T19:24:22.039Z,100562.06
2019-04-25T19:26:52.967Z,100560.98
2019-04-25T19:29:26.239Z,100562.52
2019-04-25T19:31:57.043Z,100559.58
2019-04-25T19:34:27.869Z,100562.45
2019-04-25T19:36:59.848Z,100565.27
2019-04-25T19:39:32.755Z,100569.30
2019-04-25T19:42:21.446Z,100567.95
2019-04-25T19:44:52.506Z,100571.01
2019-04-25T19:47:24.732Z,100561.70
2019-04-25T19:49:55.527Z,100552.88
2019-04-25T19:52:29.507Z,100556.19
2019-04-25T19:55:00.395Z,100546.01
2019-04-25T19:57:31.359Z,100552.17
2019-04-25T20:00:03.537Z,100546.88
2019-04-25T20:02:37.817Z,100553.77
2019-04-25T20:05:13.968Z,100550.81
2019-04-25T20:07:48.202Z,100549.11
2019-04-25T20:10:39.800Z,100549.25
2019-04-25T20:13:10.880Z,100541.03
2019-04-25T20:15:44.052Z,100549.13
2019-04-25T20:18:14.613Z,100542.50
2019-04-25T20:20:46.018Z,100546.30
2019-04-25T20:23:17.478Z,100545.55
2019-04-25T20:25:48.458Z,100552.64
2019-04-25T20:28:20.702Z,100549.17
2019-04-25T20:30:52.154Z,100552.21
2019-04-25T20:33:22.967Z,100547.27
2019-04-25T20:35:53.947Z,100548.23
2019-04-25T20:38:25.903Z,100541.72
2019-04-25T20:40:56.884Z,100512.84
2019-04-25T20:43:28.433Z,100521.98
2019-04-25T20:45:59.805Z,100521.98
2019-04-25T20:48:30.880Z,100537.19
2019-04-25T20:51:02.176Z,100535.98
2019-04-25T20:53:34.217Z,100538.39
2019-04-25T20:56:05.968Z,100538.39
2019-04-25T20:58:37.771Z,100542.64
2019-04-25T21:01:08.651Z,100539.92
2019-04-25T21:03:40.490Z,100542.56
2019-04-25T21:06:17.477Z,100540.83
2019-04-25T21:08:49.034Z,100541.51
2019-04-25T21:11:20.878Z,100536.33
2019-04-25T21:14:02.644Z,100538.48
2019-04-25T21:16:56.421Z,100537.59
2019-04-25T21:19:28.989Z,100543.57
2019-04-25T21:22:01.093Z,100540.88
2019-04-25T21:24:32.063Z,100539.80
2019-04-25T21:27:03.437Z,100539.55
2019-04-25T21:29:34.208Z,100536.44
2019-04-25T21:32:05.573Z,100539.73
2019-04-25T21:34:36.347Z,100531.30
2019-04-25T21:37:09.002Z,100530.91
2019-04-25T21:39:48.719Z,100537.73
2019-04-25T21:42:27.820Z,100535.28
2019-04-25T21:44:58.958Z,100537.30
2019-04-25T21:47:30.043Z,100529.31
2019-04-25T21:50:01.310Z,100532.85
2019-04-25T21:52:34.495Z,100532.58
2019-04-25T21:55:07.661Z,100530.06
2019-04-25T21:57:39.237Z,100527.22
2019-04-25T22:00:13.817Z,100522.17
2019-04-25T22:02:46.760Z,100521.97
2019-04-25T22:05:17.846Z,100523.83
2019-04-25T22:07:49.478Z,100532.46
2019-04-25T22:10:22.146Z,100525.74
2019-04-25T22:12:53.284Z,100524.32
2019-04-25T22:15:25.073Z,100527.01
2019-04-25T22:17:58.114Z,100527.89
2019-04-25T22:20:29.256Z,100525.54
2019-04-25T22:23:00.329Z,100525.42
2019-04-25T22:25:31.392Z,100510.30
2019-04-25T22:28:03.071Z,100513.42
2019-04-25T22:30:34.484Z,100509.98
2019-04-25T22:33:19.275Z,100506.88
2019-04-25T22:35:55.398Z,100504.38
2019-04-25T22:38:26.456Z,100504.84
2019-04-25T22:40:59.178Z,100508.73
2019-04-25T22:43:32.829Z,100502.60
2019-04-25T22:46:05.992Z,100503.84
2019-04-25T22:48:50.718Z,100504.77
2019-04-25T22:51:21.469Z,100511.06
2019-04-25T22:53:52.846Z,100511.19
2019-04-25T22:56:23.585Z,100506.27
2019-04-25T22:58:54.387Z,100503.17
2019-04-25T23:01:33.009Z,100504.69
2019-04-25T23:04:11.798Z,100500.14
2019-04-25T23:06:43.528Z,100502.61
2019-04-25T23:09:14.732Z,100504.45
2019-04-25T23:11:46.040Z,100504.52
2019-04-25T23:14:17.025Z,100502.41
2019-04-25T23:16:47.846Z,100496.66
2019-04-25T23:19:18.715Z,100498.55
2019-04-25T23:21:49.712Z,100494.39
2019-04-25T23:24:22.038Z,100497.63
2019-04-25T23:27:05.256Z,100494.27
2019-04-25T23:29:36.486Z,100491.61
2019-04-25T23:32:08.711Z,100496.28
2019-04-25T23:34:39.979Z,100492.77
2019-04-25T23:37:10.930Z,100498.11
2019-04-25T23:39:42.723Z,100490.45
2019-04-25T23:42:15.579Z,100481.75
2019-04-25T23:44:46.873Z,100482.09
2019-04-25T23:47:17.667Z,100479.32
2019-04-25T23:52:38.265Z,100477.22
2019-04-25T23:55:09.535Z,100476.17
2019-04-25T23:57:41.281Z,100471.13
